Aeroporto :
LOGIN :

Iscrizione | Disclaimer

   EN    FR    IT 

 










Sommario :    VFR   VFR Marginale   IFR   IFR Intensivo   IFR Molto Intensivo
Visibilità : 
Base nubi : 
>= 8 km
>= 3000ft
5 / 8 km
1000 / 3000 ft
1500m / 5 km
500 / 1000 ft
800 / 1500m
200 / 500 ft
< 800m
< 200 ft
Simboli :   Temporali  Nebbia  Neve Forte  Precipitazioni Forti  Vento > 20 kt
SIGMETs :   Varie  Temporali  Ghiacco  Turbolenza  Onda orograficha  Ceneri Vulcaniche







- Altitudine del aeroporto : 9 ft
- Codice IATA : MIR


DTMB - Habib Bourguliba Int. Monastir

ULTIMO METAR :
  • 191430Z 09015KT 9999 SCT026 22/10 Q1010

METARs OBSOLETI :
  • 191400Z 09013KT 9999 SCT026 22/08 Q1010
  • 191330Z 07013KT 9999 SCT026 23/08 Q1010
  • 191300Z 07010KT 9999 SCT026 23/06 Q1010
  • 191230Z 05010KT 020V080 9999 SCT026 24/07 Q1009
  • 191200Z 07011KT CAVOK 24/06 Q1009

TAF TAF DTMB
Valido dal 19 a 12 ore il 20 a 12 ore UTC


191100Z 1912/2012 07010KT 9999 SCT030
PROB40
TEMPO 1915/1924 4000 -TS RA FEW030CB
BECMG 2000/2002 19004KT
Nessun NOTAM noto per questo aeroporto.



MetMap, La meteo Aeronautica in un colpo d'occhio ! - Copyright ORBIFLY Dicembre 2007 - Disclaimer

ORBIFLY MET'MAP TEAM :

Programmazione e sviluppo : Alexandra Zaïnal
Concezione e sviluppo : Baudouin d'Aumeries
Co-Programmazione e sviluppo : Marc-Olivier Méhu
Supporto tecnico e logistico : Manuel Goepfert
Aiuto per la traduzione : Arnaldo La Scala

Contatto : metmap@orbifly.com




FONTI E CREDITI :

   NOAA